createdAt,value
2023-04-20T00:03:33.779Z,14.50
2023-04-20T00:07:37.299Z,12.32
2023-04-20T00:11:40.996Z,21.77
2023-04-20T00:15:44.265Z,15.15
2023-04-20T00:19:49.337Z,12.57
2023-04-20T00:23:52.727Z,17.95
2023-04-20T00:27:56.640Z,16.48
2023-04-20T00:32:00.306Z,11.48
2023-04-20T00:36:07.186Z,15.60
2023-04-20T00:40:10.935Z,15.55
2023-04-20T00:44:16.196Z,17.35
2023-04-20T00:48:19.758Z,19.88
2023-04-20T00:52:25.168Z,18.67
2023-04-20T00:56:28.918Z,16.25
2023-04-20T01:00:33.183Z,19.70
2023-04-20T01:04:36.727Z,12.85
2023-04-20T01:08:49.496Z,11.13
2023-04-20T01:16:56.536Z,14.32
2023-04-20T01:20:59.691Z,13.70
2023-04-20T01:25:05.351Z,18.70
2023-04-20T01:29:08.818Z,15.85
2023-04-20T01:33:12.465Z,17.92
2023-04-20T01:37:16.129Z,16.30
2023-04-20T01:41:21.799Z,15.82
2023-04-20T01:45:24.995Z,17.67
2023-04-20T01:49:29.230Z,23.08
2023-04-20T01:53:32.573Z,15.70
2023-04-20T01:57:38.234Z,22.02
2023-04-20T02:01:41.459Z,18.45
2023-04-20T02:05:45.472Z,20.30
2023-04-20T02:09:48.474Z,14.75
2023-04-20T02:13:53.939Z,18.70
2023-04-20T02:17:57.607Z,22.90
2023-04-20T02:22:02.164Z,19.23
2023-04-20T02:26:05.736Z,18.05
2023-04-20T02:30:12.573Z,16.02
2023-04-20T02:34:16.259Z,16.80
2023-04-20T02:38:19.771Z,16.10
2023-04-20T02:42:23.057Z,18.20
2023-04-20T02:46:27.745Z,16.20
2023-04-20T02:50:30.939Z,17.38
2023-04-20T02:54:35.160Z,18.42
2023-04-20T02:58:38.656Z,15.73
2023-04-20T03:02:43.763Z,22.58
2023-04-20T03:06:47.341Z,17.92
2023-04-20T03:10:51.346Z,18.40
2023-04-20T03:14:54.784Z,20.90
2023-04-20T03:19:00.178Z,23.90
2023-04-20T03:23:03.135Z,19.42
2023-04-20T03:27:06.690Z,18.73
2023-04-20T03:31:10.132Z,25.52
2023-04-20T03:35:14.915Z,16.42
2023-04-20T03:39:20.364Z,11.35
2023-04-20T03:43:24.211Z,12.38
2023-04-20T03:47:27.723Z,10.95
2023-04-20T03:51:32.928Z,9.18
2023-04-20T03:55:36.512Z,13.45
2023-04-20T03:59:42.682Z,9.85
2023-04-20T04:03:46.222Z,9.50
2023-04-20T04:07:51.180Z,9.73
2023-04-20T04:11:54.262Z,9.60
2023-04-20T04:15:57.606Z,9.65
2023-04-20T04:20:00.933Z,13.38
2023-04-20T04:24:06.493Z,9.45
2023-04-20T04:28:09.518Z,9.68
2023-04-20T04:32:14.376Z,12.05
2023-04-20T04:36:17.774Z,13.88
2023-04-20T04:40:23.190Z,12.80
2023-04-20T04:44:29.183Z,17.13
2023-04-20T04:48:32.418Z,15.50
2023-04-20T04:52:35.546Z,19.58
2023-04-20T04:56:40.691Z,19.35
2023-04-20T05:00:43.918Z,19.00
2023-04-20T05:04:47.891Z,18.88
2023-04-20T05:08:51.412Z,22.30
2023-04-20T05:12:58.883Z,19.92
2023-04-20T05:17:03.483Z,21.20
2023-04-20T05:21:07.186Z,17.55
2023-04-20T05:25:13.802Z,14.68
2023-04-20T05:29:19.418Z,17.35
2023-04-20T05:33:22.705Z,20.13
2023-04-20T05:37:26.185Z,14.23
2023-04-20T05:41:29.281Z,17.42
2023-04-20T05:45:36.408Z,15.52
2023-04-20T05:49:40.675Z,19.42
2023-04-20T05:53:44.412Z,20.90
2023-04-20T05:57:48.116Z,22.27
2023-04-20T06:01:53.313Z,18.63
2023-04-20T06:05:56.553Z,16.98
2023-04-20T06:10:01.267Z,22.25
2023-04-20T06:14:04.487Z,19.17
2023-04-20T06:18:09.674Z,21.23
2023-04-20T06:22:13.237Z,21.83
2023-04-20T06:26:17.005Z,17.08
2023-04-20T06:30:20.079Z,15.15
2023-04-20T06:34:25.605Z,17.75
2023-04-20T06:38:28.939Z,15.85
2023-04-20T06:42:32.496Z,20.38
2023-04-20T06:46:36.011Z,26.13
2023-04-20T06:50:40.817Z,21.38
2023-04-20T06:54:43.886Z,17.73
2023-04-20T06:58:47.382Z,21.42
2023-04-20T07:02:51.793Z,18.17
2023-04-20T07:06:56.683Z,15.55
2023-04-20T07:11:00.097Z,20.02
2023-04-20T07:15:06.044Z,20.75
2023-04-20T07:19:09.795Z,22.45
2023-04-20T07:23:15.465Z,34.92
2023-04-20T07:27:18.626Z,26.55
2023-04-20T07:31:22.719Z,18.00
2023-04-20T07:35:25.986Z,18.88
2023-04-20T07:39:31.356Z,18.52
2023-04-20T07:43:34.606Z,19.95
2023-04-20T07:47:38.956Z,17.77
2023-04-20T07:51:42.238Z,20.60
2023-04-20T07:55:49.140Z,23.05
2023-04-20T07:59:53.967Z,17.17
2023-04-20T08:03:57.706Z,28.35
2023-04-20T08:08:01.398Z,17.27
2023-04-20T08:12:07.150Z,20.10
2023-04-20T08:16:10.688Z,18.85
2023-04-20T08:20:15.327Z,21.98
2023-04-20T08:24:21.262Z,21.25
2023-04-20T08:28:33.484Z,22.88
2023-04-20T08:32:38.107Z,16.90
2023-04-20T08:36:43.002Z,22.40
2023-04-20T08:40:47.062Z,18.45
2023-04-20T08:44:53.353Z,16.42
2023-04-20T08:48:57.493Z,18.52
2023-04-20T08:53:01.810Z,17.58
2023-04-20T08:57:06.020Z,23.02
2023-04-20T09:01:15.553Z,17.33
2023-04-20T09:05:28.960Z,19.17
2023-04-20T09:09:32.542Z,20.65
2023-04-20T09:13:35.877Z,16.65
2023-04-20T09:17:42.399Z,19.30
2023-04-20T09:21:50.784Z,18.00
2023-04-20T09:25:54.504Z,17.67
2023-04-20T09:30:01.600Z,16.45
2023-04-20T09:34:06.983Z,15.73
2023-04-20T09:38:11.043Z,17.67
2023-04-20T09:42:16.392Z,24.60
2023-04-20T09:46:21.992Z,22.92
2023-04-20T09:50:38.316Z,17.35
2023-04-20T09:54:50.081Z,20.38
2023-04-20T09:58:56.700Z,14.23
2023-04-20T10:03:00.170Z,15.45
2023-04-20T10:07:06.608Z,14.70
2023-04-20T10:11:09.731Z,16.88
2023-04-20T10:15:13.081Z,17.17
2023-04-20T10:19:19.409Z,19.55
2023-04-20T10:23:24.570Z,15.45
2023-04-20T10:27:32.688Z,24.02
2023-04-20T10:31:40.419Z,17.52
2023-04-20T10:35:48.521Z,17.92
2023-04-20T10:39:53.256Z,19.35
2023-04-20T10:43:58.857Z,16.15
2023-04-20T10:48:09.922Z,13.10
2023-04-20T10:52:13.143Z,15.23
2023-04-20T10:56:18.091Z,12.88
2023-04-20T11:00:23.197Z,19.92
2023-04-20T11:04:33.105Z,19.45
2023-04-20T11:08:40.601Z,14.35
2023-04-20T11:12:45.640Z,15.43
2023-04-20T11:16:54.095Z,13.60
2023-04-20T11:20:59.116Z,13.80
2023-04-20T11:25:06.949Z,14.50
2023-04-20T11:29:12.845Z,12.52
2023-04-20T11:33:16.776Z,12.50
2023-04-20T11:37:20.102Z,14.32
2023-04-20T11:41:23.918Z,14.13
2023-04-20T11:45:29.316Z,16.55
2023-04-20T11:49:34.351Z,14.20
2023-04-20T11:53:38.038Z,13.70
2023-04-20T11:57:41.732Z,6.95
2023-04-20T12:01:46.927Z,14.18
2023-04-20T12:05:52.148Z,13.68
2023-04-20T12:09:55.319Z,14.90
2023-04-20T12:13:59.402Z,17.65
2023-04-20T12:18:11.513Z,16.15
2023-04-20T12:22:14.939Z,14.55
2023-04-20T12:26:18.316Z,11.90
2023-04-20T12:30:22.401Z,12.63
2023-04-20T12:34:30.757Z,15.80
2023-04-20T12:38:34.590Z,11.98
2023-04-20T12:42:37.861Z,8.88
2023-04-20T12:46:43.172Z,14.73
2023-04-20T12:50:47.751Z,7.82
2023-04-20T12:54:52.900Z,10.10
2023-04-20T12:58:55.793Z,12.30
2023-04-20T13:02:59.829Z,12.43
2023-04-20T13:07:04.754Z,10.00
2023-04-20T13:11:08.427Z,11.18
2023-04-20T13:15:13.992Z,11.15
2023-04-20T13:19:17.587Z,8.73
2023-04-20T13:23:23.503Z,10.25
2023-04-20T13:27:27.431Z,13.00
2023-04-20T13:31:31.842Z,10.02
2023-04-20T13:35:36.209Z,12.50
2023-04-20T13:39:41.599Z,8.93
2023-04-20T13:43:44.944Z,9.73
2023-04-20T13:47:49.548Z,9.93
2023-04-20T13:51:53.205Z,14.07
2023-04-20T13:55:58.869Z,8.20
2023-04-20T14:00:02.820Z,8.63
2023-04-20T14:04:06.425Z,10.30
2023-04-20T14:08:10.104Z,9.88
2023-04-20T14:12:15.275Z,13.07
2023-04-20T14:16:18.928Z,8.50
2023-04-20T14:20:22.170Z,8.88
2023-04-20T14:24:26.280Z,11.85
2023-04-20T14:28:31.844Z,10.13
2023-04-20T14:32:37.009Z,15.25
2023-04-20T14:36:41.120Z,8.02
2023-04-20T14:40:44.835Z,7.00
2023-04-20T14:44:49.746Z,9.63
2023-04-20T14:48:53.367Z,6.97
2023-04-20T14:52:56.782Z,8.73
2023-04-20T14:56:59.986Z,10.15
2023-04-20T15:01:04.526Z,7.95
2023-04-20T15:05:10.519Z,8.55
2023-04-20T15:09:15.180Z,11.82
2023-04-20T15:13:18.871Z,12.98
2023-04-20T15:17:23.687Z,7.18
2023-04-20T15:21:27.178Z,10.93
2023-04-20T15:25:30.206Z,7.85
2023-04-20T15:29:35.952Z,8.32
2023-04-20T15:33:43.355Z,9.32
2023-04-20T15:37:47.842Z,15.57
2023-04-20T15:41:51.013Z,8.77
2023-04-20T15:45:54.459Z,10.45
2023-04-20T15:50:01.755Z,10.98
2023-04-20T15:54:05.249Z,9.27
2023-04-20T15:58:10.129Z,10.73
2023-04-20T16:02:13.714Z,11.20
2023-04-20T16:06:18.478Z,9.55
2023-04-20T16:10:24.386Z,8.35
2023-04-20T16:14:28.481Z,13.90
2023-04-20T16:18:35.946Z,8.55
2023-04-20T16:22:44.622Z,14.80
2023-04-20T16:26:51.827Z,9.52
2023-04-20T16:30:58.198Z,7.18
2023-04-20T16:35:02.051Z,13.57
2023-04-20T16:39:10.348Z,9.50
2023-04-20T16:43:13.287Z,12.32
2023-04-20T16:47:16.655Z,10.10
2023-04-20T16:51:22.475Z,8.20
2023-04-20T17:00:38.468Z,10.98
2023-04-20T17:04:41.667Z,8.27
2023-04-20T17:08:45.117Z,8.52
2023-04-20T17:12:48.434Z,9.45
2023-04-20T17:16:54.408Z,8.35
2023-04-20T17:20:59.814Z,11.13
2023-04-20T17:25:06.529Z,10.93
2023-04-20T17:29:10.665Z,11.05
2023-04-20T17:33:15.144Z,8.00
2023-04-20T17:37:20.665Z,5.97
2023-04-20T17:41:23.652Z,9.45
2023-04-20T17:45:26.881Z,9.73
2023-04-20T17:49:32.545Z,7.85
2023-04-20T17:53:36.591Z,7.38
2023-04-20T17:57:40.391Z,8.93
2023-04-20T18:01:43.672Z,7.13
2023-04-20T18:05:48.502Z,6.05
2023-04-20T18:09:51.489Z,9.82
2023-04-20T18:13:54.886Z,6.28
2023-04-20T18:17:57.979Z,10.32
2023-04-20T18:22:02.637Z,8.88
2023-04-20T18:26:07.985Z,10.38
2023-04-20T18:30:11.797Z,10.05
2023-04-20T18:34:17.369Z,7.65
2023-04-20T18:38:22.215Z,9.57
2023-04-20T18:42:27.034Z,10.55
2023-04-20T18:46:30.358Z,8.57
2023-04-20T18:50:33.564Z,8.80
2023-04-20T18:54:38.973Z,15.15
2023-04-20T18:58:42.197Z,9.30
2023-04-20T19:02:45.773Z,10.35
2023-04-20T19:06:49.110Z,9.55
2023-04-20T19:10:56.976Z,10.85
2023-04-20T19:15:00.287Z,9.38
2023-04-20T19:19:05.027Z,8.35
2023-04-20T19:23:10.932Z,7.70
2023-04-20T19:27:20.810Z,8.52
2023-04-20T19:31:23.959Z,7.35
2023-04-20T19:35:27.037Z,9.05
2023-04-20T19:39:30.482Z,6.20
2023-04-20T19:43:35.433Z,12.07
2023-04-20T19:47:39.149Z,12.50
2023-04-20T19:51:42.504Z,8.88
2023-04-20T19:55:48.049Z,7.28
2023-04-20T19:59:52.987Z,8.35
2023-04-20T20:03:56.604Z,10.13
2023-04-20T20:07:59.928Z,11.18
2023-04-20T20:12:05.178Z,9.95
2023-04-20T20:16:11.138Z,8.38
2023-04-20T20:20:15.740Z,10.43
2023-04-20T20:24:19.032Z,7.57
2023-04-20T20:28:22.820Z,22.20
2023-04-20T20:32:27.776Z,5.43
2023-04-20T20:36:32.426Z,7.18
2023-04-20T20:40:35.834Z,9.80
2023-04-20T20:44:40.410Z,9.90
2023-04-20T20:48:47.254Z,9.48
2023-04-20T20:52:51.231Z,8.32
2023-04-20T20:56:58.835Z,11.90
2023-04-20T21:01:02.731Z,7.85
2023-04-20T21:05:08.024Z,14.38
2023-04-20T21:09:11.760Z,12.05
2023-04-20T21:13:16.004Z,7.93
2023-04-20T21:17:19.252Z,8.75
2023-04-20T21:21:23.945Z,8.63
2023-04-20T21:25:27.769Z,11.52
2023-04-20T21:29:31.240Z,7.65
2023-04-20T21:33:36.261Z,7.05
2023-04-20T21:37:43.068Z,7.95
2023-04-20T21:41:46.497Z,8.05
2023-04-20T21:45:51.217Z,8.13
2023-04-20T21:49:54.519Z,7.55
2023-04-20T21:53:59.429Z,8.50
2023-04-20T21:58:02.819Z,13.18
2023-04-20T22:02:06.942Z,9.15
2023-04-20T22:06:11.187Z,11.88
2023-04-20T22:10:16.202Z,11.18
2023-04-20T22:14:19.985Z,7.68
2023-04-20T22:18:23.146Z,10.10
2023-04-20T22:22:26.250Z,13.82
2023-04-20T22:26:30.737Z,8.45
2023-04-20T22:30:34.345Z,10.85
2023-04-20T22:34:37.338Z,8.85
2023-04-20T22:38:41.196Z,9.73
2023-04-20T22:42:45.478Z,8.82
2023-04-20T22:46:51.401Z,15.30
2023-04-20T22:50:54.838Z,9.80
2023-04-20T22:54:58.302Z,14.73
2023-04-20T22:59:02.643Z,12.05
2023-04-20T23:03:06.977Z,9.57
2023-04-20T23:07:10.618Z,10.05
2023-04-20T23:11:16.819Z,10.25
2023-04-20T23:15:21.860Z,16.63
2023-04-20T23:19:26.279Z,7.65
2023-04-20T23:23:29.339Z,9.73
2023-04-20T23:27:32.755Z,9.63
2023-04-20T23:31:37.599Z,11.20
2023-04-20T23:35:41.487Z,12.77
2023-04-20T23:39:44.872Z,12.77
2023-04-20T23:43:49.937Z,9.60
2023-04-20T23:47:54.766Z,10.98
2023-04-20T23:51:58.487Z,16.80
2023-04-20T23:56:01.906Z,10.57
